sim
Sign-in with your pilot id or email,
or register
Callsign
Passwort

Schedule Details

Flight Number: DLH1807
Departure: Madrid Barajas Airport (LEMD) at 06:25
Arrival: Munich Airport (EDDM) at 09:00
Route: Lufthansa Passenger Schedule. Enter filed route here before submitting Pirep.

Weather Information
Getting current METAR information for LEMD 010730Z 00000KT CAVOK 13/08 Q1013 NOSIG
Getting current METAR information for EDDM 010750Z 10003KT 080V140 2000 1100NE R08L/P2000N R08R/0900N BCFG FEW001 SCT003 07/07 Q1008 BECMG 5000

Schedule Frequency

Route Map